Time;durP1;ratioP1;P1;durP2;ratioP2;P2;SDS_P1;SDS_P2;PMS_P1;PMS_P2;Temp;Humidity;BMP_temperature;BMP_pressure;BME280_temperature;BME280_humidity;BME280_pressure;Samples;Min_cycle;Max_cycle;Signal;HPM_P1;HPM_P2
2023/07/16 00:01:04;;;;;;;12.63;3.53;;;16.30;99.90;;;;;;5012354;28;20415;-77
2023/07/16 00:03:30;;;;;;;7.87;2.90;;;16.30;99.90;;;;;;5013176;28;20407;-77
2023/07/16 00:05:55;;;;;;;10.90;3.27;;;16.40;99.90;;;;;;4998323;28;20410;-77
2023/07/16 00:08:22;;;;;;;9.10;3.00;;;16.60;99.90;;;;;;4998196;28;21008;-77
2023/07/16 00:10:47;;;;;;;11.98;3.53;;;16.70;99.90;;;;;;5009946;28;20418;-77
2023/07/16 00:13:13;;;;;;;8.07;3.10;;;16.70;99.90;;;;;;4981607;28;20407;-77
2023/07/16 00:15:39;;;;;;;11.40;3.00;;;16.70;99.90;;;;;;4997301;28;20419;-77
2023/07/16 00:18:05;;;;;;;10.38;3.42;;;16.50;99.90;;;;;;4997784;28;21086;-77
2023/07/16 00:20:32;;;;;;;10.80;3.15;;;16.60;99.90;;;;;;4997292;28;20729;-77
2023/07/16 00:22:58;;;;;;;9.32;3.25;;;16.70;99.90;;;;;;5000291;28;20775;-76
2023/07/16 00:25:23;;;;;;;11.43;3.60;;;16.50;99.90;;;;;;4997826;28;20417;-77
2023/07/16 00:27:49;;;;;;;9.85;3.30;;;16.40;99.90;;;;;;5014127;28;20915;-77
2023/07/16 00:30:15;;;;;;;11.55;3.20;;;16.70;99.90;;;;;;4981960;28;20391;-77
2023/07/16 00:32:40;;;;;;;12.67;3.17;;;16.60;99.90;;;;;;5013029;28;20427;-77
2023/07/16 00:35:06;;;;;;;11.52;3.58;;;16.70;99.90;;;;;;5014180;28;20415;-77
2023/07/16 00:37:34;;;;;;;11.57;3.67;;;16.50;99.90;;;;;;4997465;28;20419;-77
2023/07/16 00:39:59;;;;;;;11.17;2.97;;;16.90;99.90;;;;;;4998163;28;20436;-77
2023/07/16 00:42:25;;;;;;;9.27;3.30;;;16.70;99.90;;;;;;5002109;28;20420;-77
2023/07/16 00:44:51;;;;;;;8.43;3.10;;;16.70;99.90;;;;;;4979077;28;20419;-76
2023/07/16 00:47:17;;;;;;;9.80;3.10;;;16.50;99.90;;;;;;4997490;28;20830;-77
2023/07/16 00:49:42;;;;;;;9.45;3.17;;;16.50;99.90;;;;;;4998000;28;20410;-77
2023/07/16 00:52:16;;;;;;;11.95;3.38;;;16.70;99.90;;;;;;4990881;28;20423;-77
2023/07/16 00:54:42;;;;;;;11.88;3.42;;;16.60;99.90;;;;;;5013698;28;20423;-77
2023/07/16 00:57:08;;;;;;;14.45;3.80;;;16.50;99.90;;;;;;4994786;28;20430;-77
2023/07/16 00:59:34;;;;;;;12.87;3.80;;;17.10;99.90;;;;;;4994304;28;20942;-77
2023/07/16 01:01:59;;;;;;;11.83;3.60;;;16.90;99.90;;;;;;5011776;28;20419;-77
2023/07/16 01:04:25;;;;;;;10.88;3.65;;;16.90;99.90;;;;;;5001073;28;20750;-77
2023/07/16 01:06:55;;;;;;;8.57;3.20;;;16.90;99.90;;;;;;4994211;28;20427;-77
2023/07/16 01:09:21;;;;;;;11.27;3.30;;;17.00;99.90;;;;;;4977986;28;20478;-76
2023/07/16 01:11:49;;;;;;;10.35;3.13;;;17.00;99.90;;;;;;5005290;28;20428;-77
2023/07/16 01:14:17;;;;;;;11.95;3.60;;;16.90;99.90;;;;;;4993282;28;20895;-76
2023/07/16 01:16:43;;;;;;;12.38;4.10;;;16.80;99.90;;;;;;5013049;28;20422;-77
2023/07/16 01:19:09;;;;;;;12.20;3.63;;;16.70;99.90;;;;;;5013937;28;20458;-77
2023/07/16 01:22:01;;;;;;;13.07;3.55;;;16.70;99.90;;;;;;5013707;28;20495;-77
2023/07/16 01:24:43;;;;;;;11.05;3.35;;;16.70;99.90;;;;;;4988989;28;20458;-77
2023/07/16 01:27:12;;;;;;;9.60;3.30;;;16.80;99.90;;;;;;5015140;28;20514;-77
2023/07/16 01:29:54;;;;;;;11.85;3.33;;;17.20;99.90;;;;;;5001066;28;20466;-76
2023/07/16 01:32:21;;;;;;;10.60;3.17;;;17.10;99.90;;;;;;4995624;28;20440;-77
2023/07/16 01:34:48;;;;;;;8.90;2.83;;;17.00;99.90;;;;;;4997631;28;20536;-76
2023/07/16 01:37:14;;;;;;;11.52;3.38;;;16.70;99.90;;;;;;5008275;28;20498;-77
2023/07/16 01:39:40;;;;;;;10.40;2.88;;;16.90;99.90;;;;;;5000204;28;20513;-77
2023/07/16 01:42:06;;;;;;;7.78;2.70;;;16.20;99.90;;;;;;5015766;28;20423;-77
2023/07/16 01:44:32;;;;;;;9.98;3.15;;;16.80;99.90;;;;;;5016587;28;20415;-77
2023/07/16 01:47:10;;;;;;;7.55;3.00;;;16.60;99.90;;;;;;5000160;28;20403;-77
2023/07/16 01:49:37;;;;;;;11.32;2.78;;;16.90;99.90;;;;;;4997252;28;20416;-77
2023/07/16 01:52:04;;;;;;;8.10;2.70;;;16.70;99.90;;;;;;5008979;28;20528;-77
2023/07/16 01:54:29;;;;;;;7.65;2.70;;;16.70;99.90;;;;;;5006550;28;20507;-77
2023/07/16 01:56:55;;;;;;;9.48;2.83;;;16.70;99.90;;;;;;5000302;28;20506;-76
2023/07/16 01:59:21;;;;;;;11.52;3.03;;;16.60;99.90;;;;;;5000576;28;20430;-77
2023/07/16 02:01:46;;;;;;;12.30;3.53;;;16.50;99.90;;;;;;4970215;28;20427;-76
2023/07/16 02:04:12;;;;;;;9.40;3.20;;;16.40;99.90;;;;;;4982766;28;20419;-76
2023/07/16 02:06:38;;;;;;;9.05;3.05;;;16.40;99.90;;;;;;4999865;28;20456;-77
2023/07/16 02:09:03;;;;;;;7.83;3.00;;;16.50;99.90;;;;;;5008275;28;20416;-77
2023/07/16 02:11:29;;;;;;;15.20;3.53;;;16.60;99.90;;;;;;4980817;28;20451;-77
2023/07/16 02:13:55;;;;;;;9.45;3.13;;;16.70;99.90;;;;;;4993048;28;20505;-76
2023/07/16 02:16:21;;;;;;;10.38;3.47;;;16.50;99.90;;;;;;5016589;28;20414;-77
2023/07/16 02:18:46;;;;;;;15.07;3.50;;;16.80;99.90;;;;;;4998694;28;20479;-77
2023/07/16 02:21:12;;;;;;;13.50;3.90;;;16.50;99.90;;;;;;4997822;28;20775;-77
2023/07/16 02:23:38;;;;;;;9.03;3.60;;;16.50;99.90;;;;;;5015818;28;20465;-77
2023/07/16 02:26:03;;;;;;;8.88;3.35;;;16.50;99.90;;;;;;4979758;28;20464;-76
2023/07/16 02:28:29;;;;;;;9.13;3.80;;;16.40;99.90;;;;;;4990951;28;20836;-77
2023/07/16 02:30:55;;;;;;;11.02;3.80;;;16.70;99.90;;;;;;5005828;28;20433;-77
2023/07/16 02:33:20;;;;;;;10.77;3.50;;;16.60;99.90;;;;;;5015824;28;20454;-77
2023/07/16 02:35:48;;;;;;;8.13;3.63;;;16.70;99.90;;;;;;4993430;28;20423;-77
2023/07/16 02:38:15;;;;;;;9.98;3.63;;;16.80;99.90;;;;;;5016223;28;20407;-77
2023/07/16 02:40:44;;;;;;;10.20;3.90;;;16.40;99.90;;;;;;4998600;28;20441;-77
2023/07/16 02:43:10;;;;;;;11.23;3.83;;;16.60;99.90;;;;;;5015052;28;20759;-77
2023/07/16 02:45:36;;;;;;;11.73;4.07;;;16.60;99.90;;;;;;5012860;28;20420;-77
2023/07/16 02:48:02;;;;;;;9.82;3.95;;;16.60;99.90;;;;;;5014981;28;20426;-77
2023/07/16 02:50:28;;;;;;;10.80;4.00;;;16.60;99.90;;;;;;4996230;28;20412;-76
2023/07/16 02:52:54;;;;;;;8.70;3.73;;;16.50;99.90;;;;;;5011386;28;20669;-77
2023/07/16 02:55:19;;;;;;;7.93;3.60;;;16.50;99.90;;;;;;5014411;28;20460;-77
2023/07/16 02:57:45;;;;;;;10.40;3.80;;;16.70;99.90;;;;;;4998609;28;20451;-77
2023/07/16 03:00:11;;;;;;;9.10;3.80;;;16.50;99.90;;;;;;4999334;28;20427;-77
2023/07/16 03:02:37;;;;;;;11.10;4.00;;;16.60;99.90;;;;;;5013566;28;20423;-77
2023/07/16 03:05:03;;;;;;;12.45;3.70;;;16.60;99.90;;;;;;5001117;28;20409;-77
2023/07/16 03:07:29;;;;;;;9.93;3.92;;;16.50;99.90;;;;;;5012967;28;20416;-77
2023/07/16 03:09:54;;;;;;;10.02;3.90;;;16.70;99.90;;;;;;5014717;28;20434;-77
2023/07/16 03:12:20;;;;;;;11.33;4.50;;;16.50;99.90;;;;;;4985869;28;20436;-77
2023/07/16 03:14:46;;;;;;;10.93;4.13;;;16.40;99.90;;;;;;4980428;28;20797;-76
2023/07/16 03:17:11;;;;;;;9.02;3.80;;;16.40;99.90;;;;;;5010627;28;20752;-77
2023/07/16 03:19:37;;;;;;;11.68;4.40;;;16.60;99.90;;;;;;5014128;28;20458;-77
2023/07/16 03:22:03;;;;;;;10.27;4.47;;;16.60;99.90;;;;;;4996199;28;20421;-77
2023/07/16 03:24:29;;;;;;;11.57;4.18;;;16.40;99.90;;;;;;4981088;28;20458;-77
2023/07/16 03:26:55;;;;;;;9.77;3.90;;;16.50;99.90;;;;;;5015018;28;20794;-77
2023/07/16 03:29:21;;;;;;;11.25;4.53;;;16.40;99.90;;;;;;5012725;28;20419;-77
2023/07/16 03:31:46;;;;;;;11.03;4.10;;;16.50;99.90;;;;;;5009258;28;20425;-77
2023/07/16 03:34:12;;;;;;;12.13;4.40;;;16.50;99.90;;;;;;5015212;28;20430;-77
2023/07/16 03:36:37;;;;;;;12.25;4.70;;;16.60;99.90;;;;;;5013234;28;21046;-77
2023/07/16 03:39:03;;;;;;;12.07;4.93;;;16.40;99.90;;;;;;4981583;28;20951;-76
2023/07/16 03:41:29;;;;;;;10.37;4.27;;;16.40;99.90;;;;;;5009583;28;20435;-77
2023/07/16 03:43:54;;;;;;;11.27;4.67;;;16.40;99.90;;;;;;5015228;28;20465;-78
2023/07/16 03:46:20;;;;;;;12.17;4.70;;;16.30;99.90;;;;;;4986085;28;20583;-77
2023/07/16 03:48:46;;;;;;;12.88;4.75;;;16.50;99.90;;;;;;4993005;28;20894;-78
2023/07/16 03:51:12;;;;;;;13.27;4.70;;;16.20;99.90;;;;;;4994233;28;20522;-77
2023/07/16 03:53:38;;;;;;;13.97;5.27;;;16.40;99.90;;;;;;5010048;28;20517;-77
2023/07/16 03:56:04;;;;;;;13.77;4.90;;;16.50;99.90;;;;;;5003973;28;20895;-77
2023/07/16 03:58:29;;;;;;;10.73;4.40;;;16.60;99.90;;;;;;4982064;28;20410;-77
2023/07/16 04:00:55;;;;;;;9.80;4.63;;;16.30;99.90;;;;;;4996857;28;20748;-77
2023/07/16 04:03:21;;;;;;;12.85;5.15;;;16.40;99.90;;;;;;5013256;28;20423;-77
2023/07/16 04:05:46;;;;;;;15.07;5.22;;;16.40;99.90;;;;;;4981777;28;20419;-77
2023/07/16 04:08:13;;;;;;;11.15;4.55;;;16.30;99.90;;;;;;5014202;28;20476;-77
2023/07/16 04:10:38;;;;;;;12.68;4.97;;;16.60;99.90;;;;;;5014833;28;20493;-77
2023/07/16 04:13:04;;;;;;;13.90;5.20;;;16.50;99.90;;;;;;5012321;28;20447;-77
2023/07/16 04:15:30;;;;;;;13.77;4.97;;;16.40;99.90;;;;;;4994964;28;20765;-77
2023/07/16 04:17:56;;;;;;;9.73;4.50;;;16.40;99.90;;;;;;5013953;28;20427;-77
2023/07/16 04:20:21;;;;;;;11.97;4.90;;;16.60;99.90;;;;;;5013912;28;20510;-77
2023/07/16 04:22:47;;;;;;;14.00;5.07;;;16.80;99.90;;;;;;5005634;28;20415;-77
2023/07/16 04:25:13;;;;;;;15.70;5.47;;;16.70;99.90;;;;;;4994672;28;20808;-76
2023/07/16 04:27:41;;;;;;;11.73;4.70;;;16.50;99.90;;;;;;4984759;28;20434;-77
2023/07/16 04:30:07;;;;;;;15.73;5.18;;;16.40;99.90;;;;;;5014111;28;20411;-77
2023/07/16 04:32:33;;;;;;;11.93;5.23;;;16.50;99.90;;;;;;4998095;28;20457;-77
2023/07/16 04:34:59;;;;;;;12.37;5.03;;;16.70;99.90;;;;;;4997013;28;20411;-77
2023/07/16 04:37:24;;;;;;;12.02;5.40;;;16.70;99.90;;;;;;5009790;28;20828;-77
2023/07/16 04:39:50;;;;;;;11.23;4.95;;;16.50;99.90;;;;;;4996207;28;20425;-77
2023/07/16 04:42:16;;;;;;;11.57;5.20;;;16.60;99.90;;;;;;4978501;28;20455;-77
2023/07/16 04:44:42;;;;;;;13.45;5.88;;;16.70;99.90;;;;;;4994743;28;20412;-76
2023/07/16 04:47:08;;;;;;;12.50;5.20;;;16.60;99.90;;;;;;4993792;28;20782;-76
2023/07/16 04:49:36;;;;;;;14.47;5.30;;;16.90;99.90;;;;;;4997190;28;20935;-75
2023/07/16 04:52:02;;;;;;;11.93;5.35;;;16.90;99.90;;;;;;5029913;28;20480;-76
2023/07/16 04:54:27;;;;;;;15.35;5.57;;;16.90;99.90;;;;;;4997941;28;20501;-77
2023/07/16 04:56:53;;;;;;;12.20;5.07;;;17.00;99.90;;;;;;4993940;28;20431;-77
2023/07/16 04:59:19;;;;;;;12.63;5.20;;;16.90;99.90;;;;;;4981890;28;20939;-77
2023/07/16 05:01:44;;;;;;;11.05;5.32;;;17.10;99.90;;;;;;4999038;28;20759;-77
2023/07/16 05:04:10;;;;;;;15.50;5.23;;;17.10;99.90;;;;;;5000446;28;20409;-76
2023/07/16 05:06:35;;;;;;;12.23;5.37;;;17.00;99.90;;;;;;5016458;28;20435;-77
2023/07/16 05:09:01;;;;;;;11.88;5.35;;;17.10;99.90;;;;;;5016636;28;20452;-77
2023/07/16 05:11:27;;;;;;;12.10;5.13;;;17.10;99.90;;;;;;5004438;28;20924;-77
2023/07/16 05:13:52;;;;;;;12.23;5.10;;;17.10;99.90;;;;;;5015584;28;20462;-77
2023/07/16 05:16:18;;;;;;;13.18;5.05;;;17.20;99.90;;;;;;5017029;28;20439;-77
2023/07/16 05:18:44;;;;;;;14.82;4.68;;;17.40;99.90;;;;;;5015672;28;20872;-78
2023/07/16 05:21:09;;;;;;;10.47;4.70;;;17.30;99.90;;;;;;5017618;28;20767;-76
2023/07/16 05:23:35;;;;;;;12.63;4.80;;;17.30;99.90;;;;;;5017549;28;20452;-78
2023/07/16 05:26:01;;;;;;;13.32;4.55;;;17.50;99.90;;;;;;5004706;28;20437;-77
2023/07/16 05:28:26;;;;;;;12.43;4.50;;;17.60;99.90;;;;;;5000996;28;20407;-76
2023/07/16 05:31:02;;;;;;;12.60;4.60;;;17.80;99.90;;;;;;5016124;28;20395;-77
2023/07/16 05:33:28;;;;;;;12.52;4.80;;;17.60;99.90;;;;;;5009797;28;20941;-76
2023/07/16 05:35:54;;;;;;;11.73;4.65;;;17.50;99.90;;;;;;5015945;28;20403;-76
2023/07/16 05:38:19;;;;;;;11.57;4.47;;;17.70;99.90;;;;;;5004924;28;20910;-76
2023/07/16 05:40:45;;;;;;;11.73;4.40;;;17.60;99.90;;;;;;4981439;28;20405;-76
2023/07/16 05:43:11;;;;;;;12.13;4.63;;;17.60;99.90;;;;;;4988808;28;20414;-76
2023/07/16 05:45:37;;;;;;;11.00;4.23;;;17.60;99.90;;;;;;5016645;28;20914;-76
2023/07/16 05:48:03;;;;;;;11.33;4.33;;;17.80;99.90;;;;;;4980517;28;20465;-76
2023/07/16 05:50:29;;;;;;;11.60;4.15;;;17.70;99.90;;;;;;5000665;28;20737;-76
2023/07/16 05:52:55;;;;;;;12.30;4.57;;;17.50;99.90;;;;;;5011425;28;20491;-76
2023/07/16 05:55:20;;;;;;;9.30;4.03;;;17.60;99.90;;;;;;4981046;28;20421;-77
2023/07/16 05:57:46;;;;;;;14.23;4.43;;;17.80;99.90;;;;;;5012481;28;20868;-77
2023/07/16 06:00:13;;;;;;;13.20;4.40;;;18.10;99.90;;;;;;5015092;28;20513;-76
2023/07/16 06:02:39;;;;;;;10.00;4.30;;;18.10;99.90;;;;;;5000204;28;20428;-76
2023/07/16 06:05:06;;;;;;;11.25;4.13;;;17.90;99.90;;;;;;5016635;28;20396;-77
2023/07/16 06:07:32;;;;;;;9.05;4.30;;;18.20;99.90;;;;;;5015840;28;20878;-77
2023/07/16 06:09:58;;;;;;;14.07;4.45;;;18.30;99.90;;;;;;5000571;28;20461;-77
2023/07/16 06:12:24;;;;;;;13.43;4.63;;;18.40;99.90;;;;;;5001851;28;20420;-76
2023/07/16 06:14:50;;;;;;;11.50;4.68;;;18.50;99.90;;;;;;4998788;28;20425;-77
2023/07/16 06:17:18;;;;;;;14.77;4.43;;;18.20;99.90;;;;;;5014727;28;20427;-77
2023/07/16 06:19:44;;;;;;;12.57;4.95;;;18.30;99.90;;;;;;5008586;28;20427;-77
2023/07/16 06:22:09;;;;;;;13.52;5.00;;;18.40;99.90;;;;;;5011716;28;20418;-77
2023/07/16 06:24:35;;;;;;;14.63;4.70;;;18.40;99.90;;;;;;5017673;28;20418;-75
2023/07/16 06:27:01;;;;;;;14.03;5.40;;;18.60;99.90;;;;;;5010438;28;20957;-76
2023/07/16 06:29:26;;;;;;;11.23;4.93;;;18.60;99.90;;;;;;4994255;28;20953;-77
2023/07/16 06:31:59;;;;;;;22.20;5.13;;;18.40;99.90;;;;;;4992513;28;22173;-76
2023/07/16 06:34:25;;;;;;;12.20;5.47;;;18.60;99.90;;;;;;5011899;28;20426;-76
2023/07/16 06:36:51;;;;;;;11.85;4.93;;;18.50;99.90;;;;;;4998072;28;20419;-75
2023/07/16 06:39:16;;;;;;;12.75;5.00;;;18.70;99.90;;;;;;4983840;28;20748;-74
2023/07/16 06:41:42;;;;;;;12.67;5.20;;;18.50;99.90;;;;;;4996987;28;20432;-75
2023/07/16 06:44:08;;;;;;;12.20;5.18;;;18.30;99.90;;;;;;4980156;28;20428;-75
2023/07/16 06:46:34;;;;;;;14.50;5.30;;;18.20;99.90;;;;;;4999825;28;20416;-75
2023/07/16 06:49:00;;;;;;;13.05;5.93;;;18.30;99.90;;;;;;5010352;28;20437;-76
2023/07/16 06:51:25;;;;;;;10.75;5.20;;;18.40;99.90;;;;;;4993716;28;20438;-75
2023/07/16 06:53:51;;;;;;;11.23;4.80;;;18.50;99.90;;;;;;4983820;28;20429;-76
2023/07/16 06:56:17;;;;;;;9.80;4.85;;;18.70;99.90;;;;;;5023175;28;20432;-76
2023/07/16 06:58:45;;;;;;;11.38;5.28;;;18.90;99.90;;;;;;4986213;28;20459;-76
2023/07/16 07:01:11;;;;;;;11.02;5.13;;;18.70;99.90;;;;;;5012405;28;20399;-76
2023/07/16 07:03:36;;;;;;;11.15;5.10;;;19.00;99.90;;;;;;4960176;28;20421;-76
2023/07/16 07:06:06;;;;;;;11.73;4.93;;;19.20;99.90;;;;;;4995108;28;20459;-76
2023/07/16 07:08:32;;;;;;;10.82;5.15;;;18.90;99.90;;;;;;4986398;28;20425;-75
2023/07/16 07:10:58;;;;;;;9.98;4.75;;;19.20;99.90;;;;;;4978487;28;20423;-75
2023/07/16 07:13:24;;;;;;;10.97;5.20;;;19.20;99.90;;;;;;4995187;28;20423;-75
2023/07/16 07:15:50;;;;;;;10.93;4.97;;;18.90;99.90;;;;;;4987556;28;20955;-76
2023/07/16 07:18:16;;;;;;;11.47;4.87;;;18.90;99.90;;;;;;4981509;28;20411;-76
2023/07/16 07:20:41;;;;;;;9.93;4.90;;;18.80;99.90;;;;;;5017772;28;20425;-76
2023/07/16 07:23:07;;;;;;;11.05;5.25;;;18.70;99.90;;;;;;4979547;28;20504;-75
2023/07/16 07:25:33;;;;;;;9.35;4.70;;;18.50;99.90;;;;;;4989044;28;20787;-75
2023/07/16 07:28:00;;;;;;;9.50;4.80;;;18.70;99.90;;;;;;4981350;28;20421;-76
2023/07/16 07:30:26;;;;;;;8.90;4.77;;;18.80;99.90;;;;;;5004057;28;20484;-76
2023/07/16 07:32:52;;;;;;;12.23;4.88;;;19.40;99.90;;;;;;4996117;28;20423;-77
2023/07/16 07:35:17;;;;;;;9.33;4.90;;;19.20;99.90;;;;;;4997928;28;20427;-75
2023/07/16 07:37:43;;;;;;;9.73;4.70;;;19.20;99.90;;;;;;5029718;28;20419;-75
2023/07/16 07:40:09;;;;;;;12.57;4.97;;;19.10;99.90;;;;;;4996453;28;20553;-75
2023/07/16 07:42:35;;;;;;;10.98;4.53;;;19.20;99.90;;;;;;5005801;28;20419;-75
2023/07/16 07:45:01;;;;;;;14.93;4.93;;;19.20;99.90;;;;;;5012885;28;20481;-75
2023/07/16 07:47:26;;;;;;;10.52;4.78;;;19.50;99.90;;;;;;4996751;28;20938;-75
2023/07/16 07:49:53;;;;;;;11.73;5.00;;;19.70;99.90;;;;;;4998161;28;20508;-76
2023/07/16 07:52:18;;;;;;;11.70;5.15;;;19.40;99.90;;;;;;5030104;28;20428;-75
2023/07/16 07:54:44;;;;;;;10.15;4.68;;;19.40;99.90;;;;;;4976374;28;20427;-76
2023/07/16 07:57:10;;;;;;;11.37;5.00;;;20.80;99.90;;;;;;5009329;28;20415;-75
2023/07/16 07:59:35;;;;;;;9.70;4.85;;;19.30;99.90;;;;;;5023264;28;20424;-76
2023/07/16 08:02:01;;;;;;;13.23;5.00;;;19.60;99.90;;;;;;5028809;28;20807;-75
2023/07/16 08:04:27;;;;;;;10.17;4.60;;;19.80;99.90;;;;;;5015674;28;20806;-76
2023/07/16 08:06:54;;;;;;;10.30;5.17;;;19.60;99.90;;;;;;5026264;28;20418;-76
2023/07/16 08:09:20;;;;;;;11.68;4.60;;;19.30;99.90;;;;;;4979094;28;20549;-76
2023/07/16 08:11:46;;;;;;;11.77;5.50;;;19.30;99.90;;;;;;5028071;28;20898;-75
2023/07/16 08:14:11;;;;;;;11.98;5.60;;;19.20;99.90;;;;;;4977419;28;20482;-76
2023/07/16 08:16:37;;;;;;;13.13;4.95;;;18.50;99.90;;;;;;4993127;28;20428;-75
2023/07/16 08:19:03;;;;;;;13.90;5.55;;;16.80;99.90;;;;;;5004199;28;20452;-76
2023/07/16 08:21:29;;;;;;;11.43;5.00;;;18.80;99.90;;;;;;4997244;28;20417;-75
2023/07/16 08:23:54;;;;;;;11.90;5.33;;;18.70;99.90;;;;;;4992011;28;20507;-75
2023/07/16 08:26:20;;;;;;;9.77;5.00;;;18.70;99.90;;;;;;5010906;28;20875;-74
2023/07/16 08:28:46;;;;;;;12.05;5.25;;;18.90;99.90;;;;;;4995679;28;20489;-76
2023/07/16 08:31:12;;;;;;;11.97;5.10;;;19.00;99.90;;;;;;4984681;28;20764;-75
2023/07/16 08:33:38;;;;;;;12.25;5.53;;;19.30;99.90;;;;;;4992047;28;20467;-75
2023/07/16 08:36:04;;;;;;;11.75;5.22;;;19.50;99.90;;;;;;5008834;28;20518;-75
2023/07/16 08:38:30;;;;;;;10.95;5.07;;;19.70;99.90;;;;;;5013955;28;22318;-75
2023/07/16 08:40:56;;;;;;;12.00;5.25;;;20.00;99.90;;;;;;4999330;28;20423;-75
2023/07/16 08:43:22;;;;;;;10.73;5.13;;;20.30;99.90;;;;;;5031011;28;20417;-75
2023/07/16 08:45:49;;;;;;;8.95;4.80;;;20.40;99.90;;;;;;4998982;28;20415;-76
2023/07/16 08:48:19;;;;;;;9.77;4.90;;;20.30;99.90;;;;;;5001549;28;20741;-76
2023/07/16 08:50:49;;;;;;;7.90;4.65;;;20.40;99.90;;;;;;4998016;28;20518;-75
2023/07/16 08:53:16;;;;;;;10.05;4.88;;;20.70;99.90;;;;;;5032790;28;20504;-76
2023/07/16 08:55:47;;;;;;;11.63;5.22;;;21.00;99.90;;;;;;4985906;28;20459;-75
2023/07/16 08:58:17;;;;;;;11.20;5.00;;;20.60;99.90;;;;;;5014579;28;20401;-76
2023/07/16 09:00:44;;;;;;;9.30;4.70;;;20.70;99.90;;;;;;4991932;28;20431;-75
2023/07/16 09:03:16;;;;;;;9.60;5.00;;;20.70;99.90;;;;;;5017227;28;20427;-76
2023/07/16 09:05:43;;;;;;;9.82;4.80;;;20.60;99.90;;;;;;4999669;28;20422;-76
2023/07/16 09:08:09;;;;;;;10.57;4.75;;;20.50;99.90;;;;;;5017245;28;20937;-76
2023/07/16 09:10:35;;;;;;;9.88;5.05;;;20.20;99.90;;;;;;5011031;28;20431;-76
2023/07/16 09:13:01;;;;;;;10.27;4.75;;;20.60;99.90;;;;;;4973971;28;20433;-77
2023/07/16 09:15:29;;;;;;;10.57;4.72;;;20.10;99.90;;;;;;4997755;28;20426;-75
2023/07/16 09:17:55;;;;;;;12.05;4.50;;;20.20;99.90;;;;;;5001589;28;20434;-75
2023/07/16 09:20:23;;;;;;;9.02;4.60;;;20.10;99.90;;;;;;5005891;28;20427;-76
2023/07/16 09:22:50;;;;;;;10.00;4.80;;;20.10;99.90;;;;;;4998670;28;20767;-74
2023/07/16 09:25:16;;;;;;;11.57;4.80;;;20.00;99.90;;;;;;4986498;28;20971;-75
2023/07/16 09:27:42;;;;;;;9.55;5.05;;;19.80;99.90;;;;;;5029443;28;20979;-76
2023/07/16 09:30:15;;;;;;;11.20;4.82;;;19.90;99.90;;;;;;5001687;28;20499;-76
2023/07/16 09:32:41;;;;;;;11.63;4.63;;;19.90;99.90;;;;;;5015104;28;20417;-75
2023/07/16 09:35:15;;;;;;;10.20;4.70;;;20.10;99.90;;;;;;5008920;28;20485;-75
2023/07/16 09:37:42;;;;;;;10.52;4.90;;;20.10;99.90;;;;;;4983980;28;20518;-75
2023/07/16 09:40:10;;;;;;;10.00;4.72;;;19.90;99.90;;;;;;4995313;28;20433;-75
2023/07/16 09:42:40;;;;;;;9.85;4.68;;;18.70;99.90;;;;;;5032485;28;20450;-76
2023/07/16 09:45:08;;;;;;;9.85;4.72;;;20.20;99.90;;;;;;5016001;28;20499;-75
2023/07/16 09:47:35;;;;;;;8.30;4.68;;;20.80;99.90;;;;;;5006914;28;20465;-75
2023/07/16 09:50:02;;;;;;;9.77;4.37;;;21.40;99.90;;;;;;4996560;28;20426;-75
2023/07/16 09:52:28;;;;;;;10.02;4.40;;;20.80;99.90;;;;;;5017695;28;20926;-76
2023/07/16 09:54:56;;;;;;;10.18;4.57;;;20.90;99.90;;;;;;4980139;28;20983;-76
2023/07/16 09:57:24;;;;;;;11.30;4.50;;;20.80;99.90;;;;;;5007115;28;20428;-76
2023/07/16 09:59:52;;;;;;;7.23;4.10;;;20.70;99.90;;;;;;5012471;28;20553;-75
2023/07/16 10:02:20;;;;;;;12.93;5.07;;;20.40;99.90;;;;;;5012794;28;20405;-75
2023/07/16 10:04:45;;;;;;;10.43;4.88;;;20.40;99.90;;;;;;5000453;28;20442;-76
2023/07/16 10:07:22;;;;;;;11.80;4.97;;;20.60;99.90;;;;;;5010266;28;20423;-75
2023/07/16 10:09:58;;;;;;;12.43;5.30;;;20.70;99.90;;;;;;4988763;28;20438;-75
2023/07/16 10:12:26;;;;;;;11.65;5.05;;;20.70;99.90;;;;;;4974351;28;20426;-75
2023/07/16 10:14:56;;;;;;;12.52;4.80;;;21.10;99.90;;;;;;5016022;28;20433;-75
2023/07/16 10:17:26;;;;;;;9.45;4.47;;;21.20;99.90;;;;;;5028328;28;20408;-75
2023/07/16 10:20:07;;;;;;;8.20;4.53;;;21.30;99.90;;;;;;4992423;28;20477;-75
2023/07/16 10:22:37;;;;;;;6.97;4.10;;;21.20;99.90;;;;;;4992202;28;20415;-76
2023/07/16 10:25:18;;;;;;;8.55;4.60;;;21.00;99.90;;;;;;5015685;28;20432;-75
2023/07/16 10:27:46;;;;;;;10.20;5.43;;;20.70;99.90;;;;;;5019384;28;20419;-75
2023/07/16 10:30:12;;;;;;;11.38;4.68;;;20.60;99.90;;;;;;5015797;28;20427;-75
2023/07/16 10:32:38;;;;;;;9.25;4.70;;;20.90;99.90;;;;;;4998452;28;20477;-75
2023/07/16 10:35:05;;;;;;;12.03;4.87;;;20.80;99.90;;;;;;4999709;28;20423;-75
2023/07/16 10:37:32;;;;;;;10.60;4.95;;;20.90;99.90;;;;;;5011026;28;20431;-75
2023/07/16 10:39:59;;;;;;;7.90;4.70;;;21.20;99.90;;;;;;5031389;28;20465;-76
2023/07/16 10:42:27;;;;;;;8.73;4.93;;;21.40;99.90;;;;;;5013382;28;20779;-75
2023/07/16 10:44:54;;;;;;;7.53;4.60;;;21.70;99.90;;;;;;5014099;28;20432;-76
2023/07/16 10:47:25;;;;;;;9.15;4.90;;;21.80;99.90;;;;;;5019870;28;20490;-75
2023/07/16 10:49:52;;;;;;;11.75;4.75;;;21.70;99.90;;;;;;4996724;28;20412;-76
2023/07/16 10:52:18;;;;;;;9.32;4.28;;;21.80;99.90;;;;;;4984046;28;20429;-75
2023/07/16 10:54:44;;;;;;;10.35;4.82;;;21.50;99.90;;;;;;5007812;28;20422;-75
2023/07/16 10:57:13;;;;;;;8.73;4.37;;;21.80;99.90;;;;;;5010284;28;20428;-75
2023/07/16 10:59:49;;;;;;;8.32;4.13;;;22.10;99.90;;;;;;4998812;28;20597;-75
2023/07/16 11:02:16;;;;;;;10.10;4.80;;;23.00;99.90;;;;;;4990797;28;20503;-76
2023/07/16 11:04:46;;;;;;;9.52;4.53;;;21.90;99.90;;;;;;5030458;28;20891;-75
2023/07/16 11:07:13;;;;;;;10.10;4.13;;;22.40;99.90;;;;;;4995855;28;20431;-74
2023/07/16 11:09:43;;;;;;;9.65;4.07;;;22.10;99.90;;;;;;5028137;28;20430;-76
2023/07/16 11:12:13;;;;;;;11.10;4.40;;;21.60;99.90;;;;;;5027150;28;20415;-75
2023/07/16 11:14:44;;;;;;;10.93;4.43;;;21.60;99.90;;;;;;5021520;28;20418;-75
2023/07/16 11:17:10;;;;;;;9.60;4.03;;;21.30;99.90;;;;;;5024593;28;20427;-75
2023/07/16 11:19:37;;;;;;;10.18;4.45;;;21.00;99.90;;;;;;5003603;28;20457;-76
2023/07/16 11:22:05;;;;;;;9.00;4.68;;;21.00;99.90;;;;;;5025728;28;20812;-75
2023/07/16 11:24:47;;;;;;;9.35;4.10;;;21.40;99.90;;;;;;4992417;28;20816;-76
2023/07/16 11:27:25;;;;;;;8.40;4.20;;;21.60;99.90;;;;;;5027537;28;20480;-75
2023/07/16 11:29:53;;;;;;;8.23;4.13;;;21.80;99.90;;;;;;5014495;28;20410;-75
2023/07/16 11:32:38;;;;;;;8.32;4.25;;;21.30;99.90;;;;;;4999775;28;20552;-76
2023/07/16 11:35:06;;;;;;;7.18;3.83;;;21.30;99.90;;;;;;5025656;28;20433;-76
2023/07/16 11:37:34;;;;;;;8.25;4.60;;;21.00;99.90;;;;;;5029252;28;20483;-75
2023/07/16 11:40:09;;;;;;;10.98;4.47;;;20.80;99.90;;;;;;4996939;28;20957;-76
2023/07/16 11:42:35;;;;;;;10.80;4.53;;;21.00;99.90;;;;;;5008484;28;20521;-75
2023/07/16 11:45:02;;;;;;;11.00;5.07;;;21.00;99.90;;;;;;5017761;28;20758;-76
2023/07/16 11:47:28;;;;;;;9.15;5.03;;;20.70;99.90;;;;;;5026418;28;20419;-76
2023/07/16 11:49:54;;;;;;;9.57;4.93;;;20.40;99.90;;;;;;5029006;28;20474;-76
2023/07/16 11:52:28;;;;;;;9.65;4.60;;;20.90;99.90;;;;;;5023722;28;20416;-76
2023/07/16 11:54:56;;;;;;;11.00;4.75;;;20.60;99.90;;;;;;5026732;28;20415;-76
2023/07/16 11:57:22;;;;;;;12.80;4.90;;;20.90;99.90;;;;;;5029861;28;20427;-75
2023/07/16 11:59:47;;;;;;;8.85;4.78;;;22.50;99.90;;;;;;4996393;28;20940;-76
2023/07/16 12:02:13;;;;;;;9.43;5.30;;;21.20;99.90;;;;;;4992945;28;20426;-76
2023/07/16 12:04:39;;;;;;;8.80;4.87;;;21.40;99.90;;;;;;5027131;28;20806;-75
2023/07/16 12:07:05;;;;;;;9.93;5.30;;;21.50;99.90;;;;;;5028675;28;20414;-75
2023/07/16 12:09:30;;;;;;;11.90;5.20;;;20.90;99.90;;;;;;5028293;28;20454;-74
2023/07/16 12:11:56;;;;;;;9.20;4.82;;;20.60;99.90;;;;;;5028036;28;20806;-75
2023/07/16 12:14:22;;;;;;;11.43;4.82;;;20.50;99.90;;;;;;5009125;28;20513;-75
2023/07/16 12:16:48;;;;;;;10.20;5.00;;;20.80;99.90;;;;;;5022773;28;20486;-75
2023/07/16 12:19:14;;;;;;;8.23;4.67;;;21.10;99.90;;;;;;5026846;28;21326;-74
2023/07/16 12:21:42;;;;;;;10.13;4.88;;;21.30;99.90;;;;;;5011123;28;20473;-75
2023/07/16 12:24:07;;;;;;;9.30;4.85;;;21.70;99.90;;;;;;5011979;28;20830;-74
2023/07/16 12:26:33;;;;;;;10.30;4.77;;;21.40;99.90;;;;;;5012200;28;20454;-74
2023/07/16 12:29:02;;;;;;;10.63;4.67;;;21.10;99.90;;;;;;5026980;28;20431;-75
2023/07/16 12:31:30;;;;;;;11.17;4.63;;;21.10;99.90;;;;;;5013033;28;20444;-74
2023/07/16 12:33:55;;;;;;;9.20;4.93;;;20.90;99.90;;;;;;5007448;28;20785;-76
2023/07/16 12:36:21;;;;;;;10.50;4.63;;;21.20;99.90;;;;;;5029004;28;20415;-74
2023/07/16 12:38:47;;;;;;;7.70;4.18;;;21.60;99.90;;;;;;5029844;28;20545;-75